Time;durP1;ratioP1;P1;durP2;ratioP2;P2;SDS_P1;SDS_P2;PMS_P1;PMS_P2;Temp;Humidity;BMP_temperature;BMP_pressure;BME280_temperature;BME280_humidity;BME280_pressure;Samples;Min_cycle;Max_cycle;Signal;HPM_P1;HPM_P2
2023/03/02 00:00:46;;;;;;;6.47;4.43;;;6.30;75.10;;;;;;5055750;28;20108;-85
2023/03/02 00:03:16;;;;;;;6.95;4.88;;;6.30;75.10;;;;;;5061019;28;20486;-86
2023/03/02 00:05:45;;;;;;;7.18;5.35;;;6.30;75.10;;;;;;5053650;28;20025;-86
2023/03/02 00:08:15;;;;;;;6.68;4.97;;;6.30;75.10;;;;;;5059529;28;20078;-86
2023/03/02 00:10:41;;;;;;;7.50;5.50;;;6.30;75.20;;;;;;5060004;28;20051;-86
2023/03/02 00:13:07;;;;;;;8.52;6.00;;;6.30;75.10;;;;;;5042811;28;20025;-86
2023/03/02 00:15:33;;;;;;;7.55;5.28;;;6.20;75.10;;;;;;5021178;28;20025;-86
2023/03/02 00:17:58;;;;;;;8.23;6.05;;;6.20;75.10;;;;;;5027020;28;20520;-86
2023/03/02 00:20:24;;;;;;;9.07;6.55;;;6.20;75.10;;;;;;5049198;28;20536;-85
2023/03/02 00:22:50;;;;;;;7.85;6.03;;;6.20;75.10;;;;;;5042781;28;20032;-86
2023/03/02 00:25:17;;;;;;;8.82;6.50;;;6.20;75.10;;;;;;5020210;28;20028;-85
2023/03/02 00:27:43;;;;;;;8.88;6.53;;;6.20;75.20;;;;;;5064382;28;20043;-86
2023/03/02 00:30:11;;;;;;;8.88;6.65;;;6.20;75.20;;;;;;5065794;28;20098;-85
2023/03/02 00:32:37;;;;;;;9.73;6.90;;;6.20;75.20;;;;;;5041691;28;20021;-86
2023/03/02 00:35:04;;;;;;;8.50;6.10;;;6.10;75.20;;;;;;5037294;28;20167;-85
2023/03/02 00:37:30;;;;;;;10.50;7.20;;;6.10;75.20;;;;;;5031959;28;20111;-85
2023/03/02 00:39:55;;;;;;;9.70;6.55;;;6.20;75.20;;;;;;5043753;28;20108;-85
2023/03/02 00:42:22;;;;;;;10.55;7.55;;;6.10;75.20;;;;;;5037832;28;20166;-86
2023/03/02 00:44:47;;;;;;;10.88;7.95;;;6.10;75.20;;;;;;5039685;28;20025;-85
2023/03/02 00:47:13;;;;;;;10.70;7.93;;;6.10;75.30;;;;;;5046014;28;20025;-87
2023/03/02 00:49:39;;;;;;;11.15;8.63;;;6.10;75.30;;;;;;5019620;28;20119;-85
2023/03/02 00:52:05;;;;;;;10.48;7.78;;;6.10;75.30;;;;;;5029359;28;20028;-85
2023/03/02 00:54:31;;;;;;;11.93;8.82;;;6.10;75.30;;;;;;5028710;28;20362;-86
2023/03/02 00:56:57;;;;;;;11.55;8.82;;;6.00;75.30;;;;;;5039661;28;20039;-85
2023/03/02 00:59:26;;;;;;;10.15;7.85;;;6.00;75.30;;;;;;5027458;28;20049;-85
2023/03/02 01:02:00;;;;;;;12.50;8.38;;;6.00;75.30;;;;;;5023699;28;20024;-86
2023/03/02 01:04:35;;;;;;;11.63;8.50;;;6.00;75.30;;;;;;5050184;28;20074;-86
2023/03/02 01:07:04;;;;;;;11.80;8.90;;;6.00;75.30;;;;;;5047401;28;20107;-85
2023/03/02 01:09:31;;;;;;;12.65;8.93;;;6.00;75.40;;;;;;5054474;28;20095;-86
2023/03/02 01:11:58;;;;;;;11.20;8.68;;;5.90;75.30;;;;;;5042143;28;20131;-86
2023/03/02 01:14:25;;;;;;;13.13;9.35;;;5.90;75.40;;;;;;5040795;28;20476;-85
2023/03/02 01:16:51;;;;;;;11.75;8.60;;;5.90;75.40;;;;;;5056897;28;20033;-85
2023/03/02 01:27:08;;;;;;;11.30;8.43;;;5.90;75.40;;;;;;5313555;22;20111;-85
2023/03/02 01:29:34;;;;;;;11.18;8.38;;;5.80;75.50;;;;;;5026619;28;20062;-85
2023/03/02 01:32:00;;;;;;;12.93;9.27;;;5.80;75.60;;;;;;5029964;28;20028;-85
2023/03/02 01:34:26;;;;;;;13.10;9.55;;;5.70;75.50;;;;;;5020441;28;20507;-85
2023/03/02 01:36:52;;;;;;;15.55;10.88;;;5.80;75.60;;;;;;5038589;28;20115;-85
2023/03/02 01:39:21;;;;;;;13.75;9.85;;;5.70;75.60;;;;;;5054536;28;20025;-86
2023/03/02 01:41:48;;;;;;;14.52;10.02;;;5.70;75.60;;;;;;5033849;28;20021;-85
2023/03/02 01:44:41;;;;;;;15.07;10.30;;;5.70;75.60;;;;;;5036929;28;20028;-85
2023/03/02 01:47:15;;;;;;;14.45;10.27;;;5.70;75.60;;;;;;5034343;28;20036;-85
2023/03/02 01:49:56;;;;;;;13.05;9.60;;;5.70;75.60;;;;;;5046793;28;20032;-85
2023/03/02 01:52:25;;;;;;;14.93;10.43;;;5.70;75.70;;;;;;5051487;28;20087;-86
2023/03/02 01:54:55;;;;;;;13.38;9.90;;;5.60;75.60;;;;;;5035674;28;20028;-86
2023/03/02 01:57:25;;;;;;;13.38;9.63;;;5.60;75.70;;;;;;5051705;28;20036;-85
2023/03/02 01:59:56;;;;;;;14.15;10.05;;;5.60;75.70;;;;;;5041218;28;20027;-85
2023/03/02 02:02:22;;;;;;;14.52;9.98;;;5.60;75.80;;;;;;5045608;28;20017;-85
2023/03/02 02:04:49;;;;;;;15.10;10.15;;;5.60;75.80;;;;;;5036871;28;20063;-86
2023/03/02 02:07:15;;;;;;;14.98;10.35;;;5.50;75.70;;;;;;5030011;28;20329;-85
2023/03/02 02:09:48;;;;;;;14.63;10.10;;;5.50;75.80;;;;;;5038884;28;20081;-85
2023/03/02 02:12:18;;;;;;;15.15;10.35;;;5.50;75.80;;;;;;5047933;28;20024;-85
2023/03/02 02:14:45;;;;;;;14.55;10.32;;;5.50;75.80;;;;;;5051875;28;20108;-86
2023/03/02 02:17:13;;;;;;;14.02;9.73;;;5.50;75.80;;;;;;5052428;28;20040;-85
2023/03/02 02:20:06;;;;;;;14.98;10.55;;;5.50;75.80;;;;;;5070188;28;20107;-85
2023/03/02 02:23:08;;;;;;;13.25;9.57;;;5.50;75.80;;;;;;5044857;28;20469;-86
2023/03/02 02:25:46;;;;;;;13.13;9.20;;;5.50;75.80;;;;;;5065239;28;20021;-85
2023/03/02 02:28:17;;;;;;;14.85;10.05;;;5.50;75.90;;;;;;5046863;28;20071;-85
2023/03/02 02:30:46;;;;;;;13.98;10.13;;;5.40;75.80;;;;;;5031453;28;20052;-85
2023/03/02 02:33:19;;;;;;;15.20;11.00;;;5.40;75.90;;;;;;5040637;28;20526;-85
2023/03/02 02:35:46;;;;;;;15.50;10.18;;;5.40;75.90;;;;;;5049866;28;20032;-86
2023/03/02 02:38:14;;;;;;;14.95;10.13;;;5.40;75.80;;;;;;5031091;28;20481;-86
2023/03/02 02:40:55;;;;;;;15.75;10.65;;;5.40;75.90;;;;;;5036606;28;20401;-85
2023/03/02 02:43:28;;;;;;;14.85;9.95;;;5.40;75.90;;;;;;5050740;28;20036;-86
2023/03/02 02:45:57;;;;;;;14.90;10.10;;;5.30;75.80;;;;;;5053922;28;20036;-86
2023/03/02 02:48:26;;;;;;;15.68;10.40;;;5.40;75.90;;;;;;5027359;28;20037;-85
2023/03/02 02:50:59;;;;;;;14.68;10.13;;;5.30;75.90;;;;;;5037429;28;20092;-86
2023/03/02 02:53:46;;;;;;;15.45;10.73;;;5.30;75.90;;;;;;5035487;28;20021;-85
2023/03/02 02:56:13;;;;;;;14.25;10.55;;;5.30;75.90;;;;;;5053078;28;20476;-84
2023/03/02 02:58:52;;;;;;;15.02;9.77;;;5.30;75.90;;;;;;5038383;28;20036;-85
2023/03/02 03:01:25;;;;;;;13.70;9.32;;;5.30;76.00;;;;;;5054537;28;20115;-85
2023/03/02 03:04:03;;;;;;;15.65;10.52;;;5.30;76.00;;;;;;5034491;28;20025;-86
2023/03/02 03:06:37;;;;;;;15.07;11.10;;;5.20;76.00;;;;;;5050576;28;20021;-85
2023/03/02 03:09:06;;;;;;;14.77;9.88;;;5.30;76.00;;;;;;5062290;28;20123;-85
2023/03/02 03:11:49;;;;;;;15.20;10.23;;;5.30;76.00;;;;;;5031123;28;20071;-86
2023/03/02 03:14:28;;;;;;;15.57;10.57;;;5.20;76.00;;;;;;5037191;28;20025;-84
2023/03/02 03:16:54;;;;;;;14.48;9.55;;;5.20;76.00;;;;;;5034986;28;20029;-85
2023/03/02 03:19:31;;;;;;;14.82;10.10;;;5.20;76.00;;;;;;5068885;28;20031;-85
2023/03/02 03:22:00;;;;;;;14.70;9.85;;;5.20;76.00;;;;;;5050935;28;20449;-86
2023/03/02 03:24:31;;;;;;;13.25;9.35;;;5.20;76.00;;;;;;5053759;28;20019;-86
2023/03/02 03:26:58;;;;;;;15.30;9.40;;;5.20;76.60;;;;;;5049322;28;20064;-86
2023/03/02 03:29:26;;;;;;;15.32;10.18;;;5.20;76.00;;;;;;5020017;28;20119;-85
2023/03/02 03:31:58;;;;;;;14.68;10.18;;;5.20;76.00;;;;;;5036596;28;20032;-86
2023/03/02 03:34:25;;;;;;;14.13;9.48;;;5.10;76.00;;;;;;5037088;28;20377;-86
2023/03/02 03:36:51;;;;;;;15.38;10.52;;;5.10;76.00;;;;;;5019307;28;20116;-85
2023/03/02 03:39:18;;;;;;;16.20;10.55;;;5.10;76.00;;;;;;5037018;28;20506;-86
2023/03/02 03:41:44;;;;;;;14.20;9.88;;;5.10;76.00;;;;;;5052950;28;20071;-85
2023/03/02 03:44:11;;;;;;;14.73;9.68;;;5.10;76.00;;;;;;5034321;28;20032;-85
2023/03/02 03:46:39;;;;;;;15.48;9.90;;;5.10;76.00;;;;;;5034931;28;20025;-85
2023/03/02 03:49:06;;;;;;;16.48;10.80;;;5.10;76.10;;;;;;5051004;28;20024;-85
2023/03/02 03:51:34;;;;;;;14.80;9.98;;;5.10;76.10;;;;;;5054215;28;20025;-85
2023/03/02 03:54:06;;;;;;;15.38;10.30;;;5.10;76.10;;;;;;5052208;28;20025;-86
2023/03/02 03:56:41;;;;;;;13.40;9.40;;;5.10;76.10;;;;;;5066282;28;20044;-85
2023/03/02 03:59:09;;;;;;;16.25;10.00;;;5.00;76.10;;;;;;5051997;28;20535;-85
2023/03/02 04:01:46;;;;;;;14.25;9.90;;;5.00;76.10;;;;;;5034859;28;20032;-86
2023/03/02 04:04:20;;;;;;;14.55;10.00;;;5.00;76.10;;;;;;5047420;28;20113;-85
2023/03/02 04:06:46;;;;;;;15.25;10.23;;;5.00;76.10;;;;;;5042725;28;20021;-85
2023/03/02 04:09:14;;;;;;;14.82;10.20;;;5.00;76.10;;;;;;5032733;28;20036;-85
2023/03/02 04:11:42;;;;;;;15.07;9.35;;;5.00;76.10;;;;;;5050368;28;20024;-85
2023/03/02 04:14:09;;;;;;;14.68;10.52;;;5.00;76.10;;;;;;5039799;28;20028;-85
2023/03/02 04:16:35;;;;;;;15.10;9.77;;;4.90;76.10;;;;;;5065359;28;20044;-85
2023/03/02 04:19:02;;;;;;;14.13;9.70;;;4.90;76.10;;;;;;5034921;28;20204;-85
2023/03/02 04:21:28;;;;;;;14.73;10.25;;;4.90;76.20;;;;;;5045699;28;20024;-85
2023/03/02 04:23:54;;;;;;;16.42;10.63;;;4.90;76.10;;;;;;5049602;28;20421;-85
2023/03/02 04:26:21;;;;;;;15.98;10.68;;;4.90;76.20;;;;;;5013162;28;20054;-85
2023/03/02 04:28:50;;;;;;;15.85;10.38;;;4.90;76.20;;;;;;5030889;28;20049;-85
2023/03/02 04:31:17;;;;;;;13.95;9.75;;;4.90;76.20;;;;;;5016808;28;20032;-85
2023/03/02 04:33:43;;;;;;;16.63;10.40;;;4.80;76.20;;;;;;4996764;28;20070;-85
2023/03/02 04:36:09;;;;;;;16.02;9.85;;;4.80;76.20;;;;;;5035372;28;20488;-85
2023/03/02 04:38:35;;;;;;;14.10;9.98;;;4.80;76.50;;;;;;5050333;28;20049;-85
2023/03/02 04:41:02;;;;;;;15.75;10.02;;;4.80;76.30;;;;;;5033374;28;20037;-85
2023/03/02 04:43:27;;;;;;;14.45;10.00;;;4.80;76.20;;;;;;5034331;28;20126;-85
2023/03/02 04:45:53;;;;;;;15.48;9.95;;;4.80;76.30;;;;;;5031462;28;20037;-84
2023/03/02 04:48:20;;;;;;;15.00;10.18;;;4.80;76.30;;;;;;5055278;28;20047;-86
2023/03/02 04:50:46;;;;;;;14.60;10.25;;;4.70;76.20;;;;;;5053256;28;20032;-84
2023/03/02 04:53:12;;;;;;;14.68;9.95;;;4.70;76.20;;;;;;5035173;28;20029;-86
2023/03/02 04:55:38;;;;;;;16.05;9.90;;;4.70;76.20;;;;;;5050650;28;20111;-85
2023/03/02 04:58:04;;;;;;;14.52;10.15;;;4.70;76.20;;;;;;5047106;28;20152;-86
2023/03/02 05:00:33;;;;;;;15.00;9.73;;;4.70;76.20;;;;;;5035614;28;20488;-85
2023/03/02 05:02:59;;;;;;;15.77;9.50;;;4.70;76.20;;;;;;5047103;28;20143;-85
2023/03/02 05:05:25;;;;;;;14.88;10.05;;;4.70;76.30;;;;;;5034631;28;20025;-85
2023/03/02 05:07:52;;;;;;;14.40;9.23;;;4.60;76.20;;;;;;5030906;28;20262;-85
2023/03/02 05:10:19;;;;;;;16.67;10.63;;;4.70;76.30;;;;;;5032961;28;20013;-85
2023/03/02 05:12:57;;;;;;;14.13;9.85;;;4.60;76.30;;;;;;5046998;28;20021;-85
2023/03/02 05:15:30;;;;;;;13.75;8.98;;;4.60;76.20;;;;;;5050652;28;20451;-85
2023/03/02 05:17:56;;;;;;;16.42;10.80;;;4.60;76.20;;;;;;5049717;28;20089;-86
2023/03/02 05:20:29;;;;;;;14.02;9.82;;;4.60;76.20;;;;;;5033048;28;20034;-85
2023/03/02 05:22:56;;;;;;;14.90;9.52;;;4.60;76.30;;;;;;5034840;28;20040;-86
2023/03/02 05:25:22;;;;;;;14.65;9.75;;;4.60;76.30;;;;;;5044977;28;20048;-86
2023/03/02 05:27:48;;;;;;;12.73;8.55;;;4.60;76.30;;;;;;5027129;28;20136;-85
2023/03/02 05:30:14;;;;;;;15.40;10.20;;;4.50;76.20;;;;;;5046556;28;20040;-86
2023/03/02 05:32:40;;;;;;;15.35;9.75;;;4.50;76.20;;;;;;5051078;28;20029;-85
2023/03/02 05:35:06;;;;;;;14.23;8.82;;;4.50;76.30;;;;;;5045405;28;20036;-85
2023/03/02 05:37:33;;;;;;;15.90;9.95;;;4.50;76.30;;;;;;5016227;28;20060;-85
2023/03/02 05:39:58;;;;;;;15.50;9.93;;;4.50;76.30;;;;;;5033020;28;20040;-85
2023/03/02 05:42:24;;;;;;;15.45;9.80;;;4.50;76.20;;;;;;4996048;28;20025;-85
2023/03/02 05:44:50;;;;;;;14.98;10.07;;;4.50;76.30;;;;;;5034673;28;20075;-86
2023/03/02 05:47:16;;;;;;;14.98;9.80;;;4.50;76.30;;;;;;5033240;28;20459;-86
2023/03/02 05:49:42;;;;;;;15.07;10.35;;;4.40;76.30;;;;;;5033184;28;20490;-85
2023/03/02 05:52:08;;;;;;;14.35;9.32;;;4.40;76.30;;;;;;5031569;28;20022;-86
2023/03/02 05:54:33;;;;;;;15.48;9.57;;;4.50;76.30;;;;;;5032952;28;20029;-86
2023/03/02 05:56:59;;;;;;;15.60;9.98;;;4.40;76.30;;;;;;5029558;28;20500;-85
2023/03/02 05:59:25;;;;;;;15.82;9.60;;;4.40;76.30;;;;;;5012022;28;20025;-85
2023/03/02 06:01:57;;;;;;;14.90;9.85;;;4.40;76.30;;;;;;5025811;28;20025;-85
2023/03/02 06:04:24;;;;;;;15.52;9.50;;;4.40;76.30;;;;;;5019156;28;20025;-85
2023/03/02 06:06:50;;;;;;;14.80;8.95;;;4.30;76.30;;;;;;5044243;28;20033;-85
2023/03/02 06:09:15;;;;;;;16.98;9.77;;;4.40;76.40;;;;;;5012691;28;20044;-85
2023/03/02 06:11:41;;;;;;;15.50;9.70;;;4.30;76.30;;;;;;5025763;28;20044;-86
2023/03/02 06:14:07;;;;;;;15.82;9.15;;;4.30;76.30;;;;;;5033504;28;20356;-85
2023/03/02 06:16:34;;;;;;;15.45;10.32;;;4.30;76.30;;;;;;5001517;28;20036;-86
2023/03/02 06:19:00;;;;;;;14.93;9.65;;;4.30;76.30;;;;;;5033584;28;20040;-86
2023/03/02 06:21:26;;;;;;;16.75;10.35;;;4.30;76.30;;;;;;5032703;28;20342;-90
2023/03/02 06:23:52;;;;;;;16.50;10.45;;;4.30;76.30;;;;;;5017331;28;20021;-89
2023/03/02 06:26:17;;;;;;;15.13;9.60;;;4.30;76.40;;;;;;5011157;28;20032;-85
2023/03/02 06:28:43;;;;;;;16.90;11.05;;;4.20;76.30;;;;;;5045962;28;20053;-87
2023/03/02 06:31:09;;;;;;;17.67;10.88;;;4.20;76.30;;;;;;5027259;28;20029;-90
2023/03/02 06:33:35;;;;;;;16.52;9.73;;;4.20;76.30;;;;;;5048995;28;20497;-89
2023/03/02 06:36:00;;;;;;;16.65;10.68;;;4.20;76.30;;;;;;4999362;28;20025;-89
2023/03/02 06:38:26;;;;;;;15.45;10.27;;;4.20;76.30;;;;;;5025040;28;20028;-87
2023/03/02 06:40:52;;;;;;;17.58;10.63;;;4.20;76.40;;;;;;5031854;28;20025;-89
2023/03/02 06:43:18;;;;;;;16.88;10.15;;;4.20;76.40;;;;;;5007755;28;20132;-87
2023/03/02 06:45:43;;;;;;;15.95;9.88;;;4.20;76.40;;;;;;5016457;28;20020;-86
2023/03/02 06:48:09;;;;;;;15.23;9.68;;;4.20;76.40;;;;;;5030774;28;20390;-81
2023/03/02 06:50:35;;;;;;;16.23;10.57;;;4.20;76.40;;;;;;5016427;28;20490;-82
2023/03/02 06:53:01;;;;;;;15.73;10.02;;;4.10;76.30;;;;;;5049145;28;20029;-87
2023/03/02 06:55:27;;;;;;;16.35;10.75;;;4.20;76.30;;;;;;5030812;28;20032;-85
2023/03/02 06:57:53;;;;;;;15.80;9.80;;;4.10;76.30;;;;;;5049763;28;20539;-85
2023/03/02 07:00:26;;;;;;;15.35;9.68;;;4.10;76.30;;;;;;5050558;28;20048;-86
2023/03/02 07:02:54;;;;;;;15.18;10.10;;;4.10;76.30;;;;;;5048082;28;20111;-86
2023/03/02 07:05:20;;;;;;;16.33;10.40;;;4.10;76.30;;;;;;5008573;28;20026;-84
2023/03/02 07:07:46;;;;;;;16.33;10.07;;;4.10;76.40;;;;;;5049044;28;20066;-84
2023/03/02 07:10:12;;;;;;;17.90;10.52;;;4.10;76.30;;;;;;5050660;28;20510;-82
2023/03/02 07:12:48;;;;;;;16.33;9.80;;;4.10;76.30;;;;;;5010172;28;20041;-80
2023/03/02 07:15:14;;;;;;;13.82;8.95;;;4.10;76.40;;;;;;5042144;28;20021;-82
2023/03/02 07:17:42;;;;;;;14.15;9.40;;;4.00;76.30;;;;;;5024183;28;20029;-83
2023/03/02 07:20:09;;;;;;;16.73;10.70;;;4.10;76.40;;;;;;5020064;28;20040;-83
2023/03/02 07:22:35;;;;;;;16.05;9.43;;;4.00;76.30;;;;;;5013023;28;20036;-83
2023/03/02 07:25:01;;;;;;;17.65;9.73;;;4.00;76.30;;;;;;5048049;28;20017;-82
2023/03/02 07:27:27;;;;;;;16.77;9.88;;;4.00;76.30;;;;;;5045434;28;20052;-83
2023/03/02 07:29:53;;;;;;;15.32;9.00;;;4.00;76.30;;;;;;5031564;28;20438;-83
2023/03/02 07:32:18;;;;;;;14.40;9.18;;;4.00;76.30;;;;;;5031276;28;20374;-83
2023/03/02 07:34:44;;;;;;;16.00;10.00;;;4.00;76.30;;;;;;5032391;28;20318;-83
2023/03/02 07:37:10;;;;;;;17.35;10.43;;;4.00;76.30;;;;;;5006667;28;20025;-83
2023/03/02 07:39:36;;;;;;;15.35;9.30;;;4.00;76.30;;;;;;5047609;28;20025;-83
2023/03/02 07:42:03;;;;;;;14.63;8.93;;;4.00;76.90;;;;;;5027563;28;20505;-83
2023/03/02 07:44:30;;;;;;;14.25;8.82;;;4.00;76.30;;;;;;5032308;28;20033;-84
2023/03/02 07:46:56;;;;;;;14.40;9.18;;;4.00;76.30;;;;;;5047965;28;20232;-83
2023/03/02 07:49:21;;;;;;;14.27;9.10;;;4.00;76.20;;;;;;5034764;28;20470;-84
2023/03/02 07:51:47;;;;;;;14.75;8.63;;;4.00;76.30;;;;;;5034415;28;20032;-84
2023/03/02 07:54:13;;;;;;;14.70;9.23;;;4.00;76.30;;;;;;5033500;28;20076;-84
2023/03/02 07:56:39;;;;;;;14.15;9.32;;;4.00;76.20;;;;;;5033966;28;20057;-85
2023/03/02 07:59:05;;;;;;;14.23;9.10;;;4.00;76.20;;;;;;5016623;28;20467;-86
2023/03/02 08:01:31;;;;;;;15.63;9.85;;;4.00;76.30;;;;;;5027450;28;20382;-84
2023/03/02 08:03:56;;;;;;;14.57;8.70;;;4.00;76.20;;;;;;5026291;28;20029;-84
2023/03/02 08:06:22;;;;;;;14.93;9.52;;;4.10;76.30;;;;;;5018703;28;20025;-85
2023/03/02 08:08:48;;;;;;;15.52;9.38;;;4.00;76.20;;;;;;5035018;28;20125;-85
2023/03/02 08:11:16;;;;;;;13.48;8.82;;;4.10;76.20;;;;;;5034372;28;20477;-85
2023/03/02 08:13:42;;;;;;;12.25;8.18;;;4.00;76.20;;;;;;5055703;28;20033;-85
2023/03/02 08:16:11;;;;;;;14.60;9.27;;;4.10;76.20;;;;;;5035831;28;20029;-84
2023/03/02 08:18:38;;;;;;;14.35;8.70;;;4.10;76.20;;;;;;5051192;28;20037;-86
2023/03/02 08:21:14;;;;;;;12.75;8.02;;;4.10;76.20;;;;;;5052372;28;20036;-86
2023/03/02 08:23:41;;;;;;;13.57;8.77;;;4.10;76.20;;;;;;5036535;28;20055;-85
2023/03/02 08:26:07;;;;;;;14.57;8.63;;;4.10;76.20;;;;;;5053627;28;20057;-85
2023/03/02 08:28:33;;;;;;;14.82;9.43;;;4.10;76.20;;;;;;5033370;28;20042;-85
2023/03/02 08:31:01;;;;;;;15.48;8.80;;;4.10;76.20;;;;;;5032652;28;20025;-85
2023/03/02 08:33:27;;;;;;;13.45;7.78;;;4.10;76.20;;;;;;5050874;28;20067;-85
2023/03/02 08:36:14;;;;;;;13.07;9.00;;;4.10;76.20;;;;;;5017487;28;20393;-84
2023/03/02 08:38:41;;;;;;;12.00;8.52;;;4.10;76.20;;;;;;5049713;28;20088;-85
2023/03/02 08:41:14;;;;;;;14.20;9.30;;;4.10;76.10;;;;;;5031104;28;20109;-85
2023/03/02 08:43:41;;;;;;;14.02;8.43;;;4.10;76.20;;;;;;5028522;28;20132;-85
2023/03/02 08:46:07;;;;;;;13.23;8.88;;;4.10;76.10;;;;;;5033024;28;20025;-85
2023/03/02 08:48:33;;;;;;;15.32;8.63;;;4.20;76.20;;;;;;5016208;28;20045;-85
2023/03/02 08:51:02;;;;;;;15.07;9.10;;;4.20;76.10;;;;;;5028178;28;20025;-85
2023/03/02 08:53:30;;;;;;;15.55;9.13;;;4.20;76.10;;;;;;5052047;28;20036;-85
2023/03/02 08:55:56;;;;;;;14.25;9.23;;;4.20;76.10;;;;;;5033319;28;20496;-84
2023/03/02 08:58:22;;;;;;;13.68;8.68;;;4.20;76.10;;;;;;5062441;28;20033;-85
2023/03/02 09:00:48;;;;;;;13.65;8.23;;;4.20;76.20;;;;;;5035040;28;20393;-85
2023/03/02 09:03:14;;;;;;;15.77;8.95;;;4.20;76.80;;;;;;5034348;28;20041;-85
2023/03/02 09:05:40;;;;;;;15.27;9.13;;;4.20;76.20;;;;;;5033270;28;20098;-85
2023/03/02 09:08:07;;;;;;;13.40;8.48;;;4.20;76.20;;;;;;5013361;28;20041;-85
2023/03/02 09:10:33;;;;;;;13.85;8.10;;;4.30;76.20;;;;;;5032412;28;20028;-84
2023/03/02 09:12:58;;;;;;;12.05;7.88;;;4.30;76.20;;;;;;5034299;28;20036;-84
2023/03/02 09:15:24;;;;;;;12.45;8.02;;;4.30;76.20;;;;;;5051763;28;20025;-84
2023/03/02 09:17:50;;;;;;;13.05;8.43;;;4.30;76.10;;;;;;5045407;28;20144;-84
2023/03/02 09:20:16;;;;;;;13.95;7.88;;;4.40;76.10;;;;;;5049362;28;20025;-85
2023/03/02 09:22:47;;;;;;;14.52;8.38;;;4.40;76.40;;;;;;5033930;28;20123;-85
2023/03/02 09:25:14;;;;;;;12.90;7.90;;;4.40;76.10;;;;;;5047198;28;20237;-84
2023/03/02 09:27:40;;;;;;;14.07;8.80;;;4.40;76.10;;;;;;5036652;28;20073;-84
2023/03/02 09:30:08;;;;;;;13.50;8.02;;;4.50;76.10;;;;;;5041505;28;20115;-84
2023/03/02 09:32:34;;;;;;;13.00;9.02;;;4.50;76.10;;;;;;5052632;28;20055;-85
2023/03/02 09:35:00;;;;;;;13.93;7.97;;;4.50;76.10;;;;;;5032974;28;20029;-85
2023/03/02 09:37:29;;;;;;;12.85;8.10;;;4.50;76.00;;;;;;5035028;28;20029;-84
2023/03/02 09:39:55;;;;;;;13.40;9.07;;;4.60;76.10;;;;;;5037791;28;20025;-85
2023/03/02 09:42:40;;;;;;;15.18;8.80;;;4.60;76.00;;;;;;5036300;28;20024;-84
2023/03/02 09:45:15;;;;;;;14.20;8.77;;;4.70;76.10;;;;;;5064091;28;20662;-82
2023/03/02 09:47:49;;;;;;;13.05;7.70;;;4.70;76.00;;;;;;5030429;28;20033;-83
2023/03/02 09:50:24;;;;;;;14.60;8.07;;;4.80;76.00;;;;;;5052865;28;20052;-83
2023/03/02 09:52:55;;;;;;;11.95;8.05;;;4.80;75.90;;;;;;5067927;28;20024;-83
2023/03/02 09:55:27;;;;;;;11.60;7.80;;;4.90;75.90;;;;;;5053997;28;20422;-84
2023/03/02 09:57:54;;;;;;;12.80;8.85;;;4.90;75.90;;;;;;5066288;28;20094;-83
2023/03/02 10:00:41;;;;;;;12.43;7.95;;;5.00;75.90;;;;;;5046665;28;20056;-83
2023/03/02 10:03:11;;;;;;;12.43;7.78;;;5.00;75.90;;;;;;5045624;28;20485;-84
2023/03/02 10:05:44;;;;;;;13.57;8.35;;;5.10;75.90;;;;;;5053376;28;20025;-83
2023/03/02 10:08:20;;;;;;;11.95;7.65;;;5.10;75.80;;;;;;5050295;28;20044;-83
2023/03/02 10:10:56;;;;;;;15.05;8.68;;;5.20;75.90;;;;;;5036006;28;20033;-83
2023/03/02 10:13:28;;;;;;;12.98;8.90;;;5.30;75.80;;;;;;5036254;28;20048;-84
2023/03/02 10:15:57;;;;;;;13.45;8.35;;;5.30;75.80;;;;;;5070647;28;20059;-83
2023/03/02 10:18:29;;;;;;;15.10;9.05;;;5.30;75.70;;;;;;5071484;28;20048;-83
2023/03/02 10:20:59;;;;;;;13.60;8.63;;;5.40;75.80;;;;;;5071475;28;20024;-84
2023/03/02 10:23:53;;;;;;;14.35;8.73;;;5.50;75.80;;;;;;5053953;28;20035;-84
2023/03/02 10:26:42;;;;;;;13.15;8.52;;;5.60;75.80;;;;;;5037769;28;20048;-84
2023/03/02 10:29:45;;;;;;;13.38;8.43;;;5.70;75.80;;;;;;5051262;28;20047;-84
2023/03/02 10:32:22;;;;;;;13.63;8.25;;;5.70;75.70;;;;;;5050867;28;20056;-84
2023/03/02 10:34:50;;;;;;;13.32;7.85;;;5.80;75.60;;;;;;5036691;28;20027;-83
2023/03/02 10:37:20;;;;;;;12.77;8.05;;;5.90;75.60;;;;;;5053058;28;20109;-83
2023/03/02 10:39:47;;;;;;;13.18;8.30;;;6.00;75.60;;;;;;5052002;28;20032;-84
2023/03/02 10:42:21;;;;;;;12.30;8.23;;;6.00;75.60;;;;;;5034761;28;20333;-84
2023/03/02 10:44:54;;;;;;;14.07;9.10;;;6.10;75.60;;;;;;5049329;28;20111;-84
2023/03/02 10:47:26;;;;;;;12.73;8.13;;;6.20;75.60;;;;;;5035902;28;20024;-83
2023/03/02 10:49:53;;;;;;;13.23;7.93;;;6.30;75.60;;;;;;5052236;28;20063;-83
2023/03/02 10:52:24;;;;;;;14.00;8.30;;;6.40;75.50;;;;;;5052121;28;20036;-81
2023/03/02 10:55:21;;;;;;;11.63;7.53;;;6.40;75.50;;;;;;5027272;28;20029;-85
2023/03/02 10:58:00;;;;;;;12.80;8.05;;;6.50;75.60;;;;;;5057934;28;20122;-86
2023/03/02 11:00:28;;;;;;;13.73;9.32;;;6.70;75.60;;;;;;5050269;28;20457;-85
2023/03/02 11:02:57;;;;;;;13.38;9.05;;;6.70;75.50;;;;;;5047239;28;20044;-86
2023/03/02 11:05:29;;;;;;;12.80;8.30;;;6.80;75.50;;;;;;5049170;28;20114;-88
2023/03/02 11:08:10;;;;;;;12.82;8.25;;;6.90;75.60;;;;;;5035527;28;20128;-90
2023/03/02 11:10:49;;;;;;;12.93;8.35;;;7.00;75.60;;;;;;5050734;28;20033;-86
2023/03/02 11:13:27;;;;;;;10.73;7.18;;;7.10;75.50;;;;;;5032061;28;20020;-84
2023/03/02 11:16:00;;;;;;;13.75;9.00;;;7.10;75.50;;;;;;5049520;28;20024;-84
2023/03/02 11:18:36;;;;;;;12.07;8.32;;;7.20;75.50;;;;;;5032004;28;20147;-84
2023/03/02 11:21:34;;;;;;;12.65;8.57;;;7.30;75.50;;;;;;5033962;28;20033;-85
2023/03/02 11:24:09;;;;;;;11.88;7.90;;;7.40;75.60;;;;;;5046150;28;20032;-83
2023/03/02 11:26:58;;;;;;;12.18;7.65;;;7.40;75.50;;;;;;5052249;28;20535;-83
2023/03/02 11:29:30;;;;;;;11.73;7.57;;;7.50;75.60;;;;;;5045490;28;20042;-85
2023/03/02 11:32:18;;;;;;;12.90;8.60;;;7.60;75.60;;;;;;5049582;28;20087;-84
2023/03/02 11:34:59;;;;;;;12.98;8.43;;;7.60;75.70;;;;;;5061191;28;20072;-85
2023/03/02 11:37:44;;;;;;;11.65;7.65;;;7.70;75.80;;;;;;5049242;28;20037;-84
2023/03/02 11:40:38;;;;;;;11.32;7.15;;;7.80;76.00;;;;;;5041615;28;20020;-85
2023/03/02 11:43:10;;;;;;;11.05;7.25;;;7.90;76.00;;;;;;5050764;28;20029;-85
2023/03/02 11:45:42;;;;;;;12.30;7.85;;;7.90;76.00;;;;;;5053529;28;20473;-84
2023/03/02 11:48:23;;;;;;;10.15;7.13;;;8.00;76.10;;;;;;5047598;28;20033;-85
2023/03/02 11:51:11;;;;;;;11.05;7.72;;;8.10;76.30;;;;;;5047457;28;20091;-85
2023/03/02 11:53:46;;;;;;;10.80;7.28;;;8.10;76.40;;;;;;5046098;28;20033;-85
2023/03/02 11:56:11;;;;;;;11.37;7.43;;;8.20;76.40;;;;;;5036128;28;20025;-84
2023/03/02 11:58:38;;;;;;;11.15;8.02;;;8.20;76.40;;;;;;5053338;28;20530;-86
2023/03/02 12:01:09;;;;;;;11.40;7.47;;;8.20;76.40;;;;;;5032358;28;20025;-88
2023/03/02 12:03:38;;;;;;;11.38;7.60;;;8.30;76.60;;;;;;5029017;28;20029;-85
2023/03/02 12:06:26;;;;;;;11.43;7.80;;;8.40;76.70;;;;;;5056203;28;20013;-84
2023/03/02 12:09:06;;;;;;;9.45;6.72;;;8.40;76.70;;;;;;5052236;28;20473;-85
2023/03/02 12:11:37;;;;;;;11.07;7.18;;;8.50;76.80;;;;;;5050232;28;20308;-84
2023/03/02 12:14:37;;;;;;;11.25;7.43;;;8.50;76.80;;;;;;5052713;28;20029;-84
2023/03/02 12:17:19;;;;;;;11.40;7.18;;;8.50;77.00;;;;;;5051377;28;20021;-85
2023/03/02 12:19:46;;;;;;;10.02;6.80;;;8.60;77.00;;;;;;5032384;28;20029;-84
2023/03/02 12:22:23;;;;;;;9.80;6.88;;;8.70;77.00;;;;;;5036076;28;20021;-85
2023/03/02 12:25:00;;;;;;;10.88;7.40;;;8.70;77.70;;;;;;5065648;28;20029;-85
2023/03/02 12:27:36;;;;;;;10.75;6.70;;;8.80;77.30;;;;;;5046080;28;20029;-84
2023/03/02 12:30:24;;;;;;;10.32;7.50;;;8.80;77.20;;;;;;5050346;28;20037;-84
2023/03/02 12:33:09;;;;;;;11.32;7.60;;;8.90;77.40;;;;;;5051653;28;20025;-85
2023/03/02 12:35:36;;;;;;;9.65;6.68;;;8.90;77.30;;;;;;5043185;28;20519;-85
2023/03/02 12:38:07;;;;;;;10.82;6.85;;;9.00;77.20;;;;;;5040295;28;20033;-85
2023/03/02 12:41:11;;;;;;;11.20;7.63;;;9.10;77.40;;;;;;5034364;28;20021;-84
2023/03/02 12:44:06;;;;;;;11.98;7.35;;;9.10;77.50;;;;;;5031061;28;20056;-85
2023/03/02 12:46:35;;;;;;;11.73;7.57;;;9.20;77.30;;;;;;5005218;28;20037;-84
2023/03/02 12:49:31;;;;;;;10.82;7.20;;;9.20;77.20;;;;;;5033675;28;20024;-84
2023/03/02 12:52:00;;;;;;;10.05;6.88;;;9.30;77.40;;;;;;5042685;28;20021;-84
2023/03/02 12:54:32;;;;;;;11.30;7.72;;;9.40;77.30;;;;;;5044155;28;20017;-83
2023/03/02 12:57:16;;;;;;;9.60;6.65;;;9.40;77.40;;;;;;5052601;28;20037;-85
2023/03/02 12:59:52;;;;;;;10.27;7.05;;;9.50;77.50;;;;;;5067860;28;20044;-84
2023/03/02 13:02:22;;;;;;;10.15;6.88;;;9.50;77.40;;;;;;5052447;28;20055;-84
2023/03/02 13:05:08;;;;;;;10.20;7.30;;;9.60;77.50;;;;;;5034655;28;20167;-84
2023/03/02 13:07:41;;;;;;;10.63;7.30;;;9.60;77.60;;;;;;5016505;28;20058;-84
2023/03/02 13:10:27;;;;;;;11.10;6.85;;;9.70;77.50;;;;;;5032491;28;20026;-85